Time;durP1;ratioP1;P1;durP2;ratioP2;P2;SDS_P1;SDS_P2;PMS_P1;PMS_P2;Temp;Humidity;BMP_temperature;BMP_pressure;BME280_temperature;BME280_humidity;BME280_pressure;Samples;Min_cycle;Max_cycle;Signal;HPM_P1;HPM_P2
2022/11/24 05:00:46;;;;;;;1999.90;999.90;;;7.00;99.90;;;;;;5901299;22;20180;-83
2022/11/24 05:03:12;;;;;;;1999.90;999.90;;;6.90;99.90;;;;;;5027009;28;20038;-83
2022/11/24 05:05:37;;;;;;;1999.90;999.90;;;6.90;99.90;;;;;;5009058;28;20061;-82
2022/11/24 05:08:03;;;;;;;1999.90;999.90;;;6.90;99.90;;;;;;5009737;28;20046;-82
2022/11/24 05:10:35;;;;;;;1999.90;999.90;;;6.90;99.90;;;;;;5025900;28;20496;-83
2022/11/24 05:13:11;;;;;;;1999.90;999.90;;;6.90;99.90;;;;;;5006918;28;20038;-81
2022/11/24 05:15:38;;;;;;;1999.90;999.90;;;6.90;99.90;;;;;;5007605;28;20939;-82
2022/11/24 05:18:06;;;;;;;1999.90;999.90;;;6.90;99.90;;;;;;5027416;28;20121;-82
2022/11/24 06:58:55;;;;;;;1999.90;999.90;;;7.20;99.90;;;;;;6160966;22;20034;-81
2022/11/24 07:01:26;;;;;;;1999.90;999.90;;;7.20;99.90;;;;;;5041292;28;20064;-81
2022/11/24 07:03:52;;;;;;;1999.90;999.90;;;7.10;99.90;;;;;;5024080;28;20041;-81
2022/11/24 07:06:19;;;;;;;1999.90;999.90;;;7.10;99.90;;;;;;5041327;28;20109;-81
2022/11/24 07:08:45;;;;;;;1999.90;999.90;;;7.10;99.90;;;;;;5041578;28;20511;-80
2022/11/24 07:11:14;;;;;;;1999.90;999.90;;;7.20;99.90;;;;;;5023287;28;20113;-83
2022/11/24 07:13:41;;;;;;;1999.90;999.90;;;7.20;99.90;;;;;;5039159;23;20430;-82
2022/11/24 07:16:22;;;;;;;1999.90;999.90;;;7.10;99.90;;;;;;5043494;28;20076;-82
2022/11/24 07:18:50;;;;;;;1999.90;999.90;;;7.10;99.90;;;;;;5060865;28;20908;-83
2022/11/24 07:21:16;;;;;;;1999.90;999.90;;;7.10;99.90;;;;;;5041952;28;20042;-82
2022/11/24 07:23:42;;;;;;;1999.90;999.90;;;7.10;99.90;;;;;;5041219;28;20594;-82
2022/11/24 07:26:09;;;;;;;1999.90;999.90;;;7.20;99.90;;;;;;5060375;28;20109;-83
2022/11/24 07:28:35;;;;;;;1999.90;999.90;;;7.20;99.90;;;;;;5041683;28;20120;-82
2022/11/24 07:31:08;;;;;;;1999.90;999.90;;;7.20;99.90;;;;;;5041825;28;20029;-82
2022/11/24 07:33:34;;;;;;;1999.90;999.90;;;7.20;99.90;;;;;;5040696;28;20141;-82
2022/11/24 07:36:00;;;;;;;1999.90;999.90;;;7.20;99.90;;;;;;5041911;28;20088;-82
2022/11/24 07:38:28;;;;;;;1999.90;999.90;;;7.30;99.90;;;;;;5059394;28;20037;-82
2022/11/24 07:40:57;;;;;;;1999.90;999.90;;;7.30;99.90;;;;;;5040135;28;20033;-82
2022/11/24 07:43:23;;;;;;;1999.90;999.90;;;7.30;99.90;;;;;;5040070;28;20099;-82
2022/11/24 07:45:52;;;;;;;1999.90;999.90;;;7.40;99.90;;;;;;5059949;28;20089;-82
2022/11/24 07:48:17;;;;;;;1999.90;999.90;;;7.40;99.90;;;;;;5058316;28;20033;-82
2022/11/24 07:50:43;;;;;;;1999.90;999.90;;;7.40;99.90;;;;;;5040911;28;20033;-83
2022/11/24 07:53:08;;;;;;;1999.90;999.90;;;7.40;99.90;;;;;;5040997;28;20048;-82
2022/11/24 07:55:34;;;;;;;1999.90;999.90;;;7.40;99.90;;;;;;5039467;28;20026;-83
2022/11/24 07:58:00;;;;;;;1999.90;999.90;;;7.50;99.90;;;;;;5040572;28;20430;-82
2022/11/24 08:00:26;;;;;;;1999.90;999.90;;;7.50;99.90;;;;;;5040041;28;20056;-82
2022/11/24 08:02:52;;;;;;;1999.90;999.90;;;7.50;99.90;;;;;;5057877;28;20049;-83
2022/11/24 08:05:18;;;;;;;1999.90;999.90;;;7.50;99.90;;;;;;5040075;28;20029;-83
2022/11/24 08:07:43;;;;;;;1999.90;999.90;;;7.50;99.90;;;;;;5058854;28;20037;-83
2022/11/24 08:10:09;;;;;;;1999.90;999.90;;;7.50;99.90;;;;;;5040008;28;20036;-83
2022/11/24 08:12:35;;;;;;;1999.90;999.90;;;7.50;99.90;;;;;;5039944;28;20037;-82
2022/11/24 08:15:00;;;;;;;1999.90;999.90;;;7.50;99.90;;;;;;5039761;28;20034;-83
2022/11/24 08:17:27;;;;;;;1999.90;999.90;;;7.50;99.90;;;;;;5058207;28;20052;-83
2022/11/24 08:19:53;;;;;;;1999.90;999.90;;;7.50;99.90;;;;;;5040090;28;20388;-83
2022/11/24 08:22:19;;;;;;;1999.90;999.90;;;7.50;99.90;;;;;;5058221;28;20041;-83
2022/11/24 08:24:47;;;;;;;1999.90;999.90;;;7.50;99.90;;;;;;5039372;28;20084;-83
2022/11/24 08:27:14;;;;;;;1999.90;999.90;;;7.50;99.90;;;;;;5039314;28;20033;-83
2022/11/24 08:29:41;;;;;;;1999.90;999.90;;;7.50;99.90;;;;;;5039778;28;20084;-82
2022/11/24 08:32:07;;;;;;;1999.90;999.90;;;7.50;99.90;;;;;;5039979;28;20037;-83
2022/11/24 08:34:33;;;;;;;1999.90;999.90;;;7.50;99.90;;;;;;5039743;28;20539;-83
2022/11/24 08:36:59;;;;;;;1999.90;999.90;;;7.60;99.90;;;;;;5039845;28;20092;-82
2022/11/24 08:39:24;;;;;;;1999.90;999.90;;;7.60;99.90;;;;;;5039803;28;20911;-82
2022/11/24 08:41:50;;;;;;;1999.90;999.90;;;7.60;99.90;;;;;;5043530;28;20038;-82
2022/11/24 08:44:17;;;;;;;1999.90;999.90;;;7.60;99.90;;;;;;5058230;28;20034;-83
2022/11/24 08:46:43;;;;;;;1999.90;999.90;;;7.60;99.90;;;;;;5041350;28;20065;-82
2022/11/24 08:49:09;;;;;;;1999.90;999.90;;;7.70;99.90;;;;;;5042336;28;20056;-83
2022/11/24 08:51:35;;;;;;;1999.90;999.90;;;7.70;99.90;;;;;;5044014;28;20043;-83
2022/11/24 08:54:01;;;;;;;1999.90;999.90;;;7.80;99.90;;;;;;5042961;28;20518;-82
2022/11/24 08:56:28;;;;;;;1999.90;999.90;;;7.80;99.90;;;;;;5043420;28;20033;-82
2022/11/24 08:58:55;;;;;;;1999.90;999.90;;;7.90;99.90;;;;;;5042449;28;20030;-82
2022/11/24 09:01:21;;;;;;;1999.90;999.90;;;7.90;99.90;;;;;;5061750;28;20037;-82
2022/11/24 09:03:48;;;;;;;1999.90;999.90;;;7.90;99.90;;;;;;5042101;28;20572;-82
2022/11/24 09:06:15;;;;;;;1999.90;999.90;;;7.80;99.90;;;;;;5042502;28;20026;-82
2022/11/24 09:08:41;;;;;;;1999.90;999.90;;;7.90;99.90;;;;;;5063107;28;20033;-82
2022/11/24 09:11:12;;;;;;;1999.90;999.90;;;7.90;99.90;;;;;;5061779;28;20411;-81
2022/11/24 09:13:39;;;;;;;1999.90;999.90;;;7.90;99.90;;;;;;5043266;28;20037;-83
2022/11/24 09:16:08;;;;;;;1999.90;999.90;;;8.00;99.90;;;;;;5061544;28;20041;-81
2022/11/24 09:18:34;;;;;;;1999.90;999.90;;;8.10;99.90;;;;;;5061201;28;20036;-82
2022/11/24 09:21:06;;;;;;;1999.90;999.90;;;8.20;99.90;;;;;;5044024;28;20450;-84
2022/11/24 09:23:32;;;;;;;1999.90;999.90;;;8.20;99.90;;;;;;5051877;28;20041;-84
2022/11/24 09:26:06;;;;;;;1999.90;999.90;;;8.30;99.90;;;;;;5055101;28;20049;-84
2022/11/24 09:28:32;;;;;;;1999.90;999.90;;;8.30;99.90;;;;;;5057184;28;20030;-83
2022/11/24 09:31:05;;;;;;;1999.90;999.90;;;8.40;99.90;;;;;;5053656;28;20057;-83
2022/11/24 09:33:32;;;;;;;1999.90;999.90;;;8.40;99.90;;;;;;5046437;28;20029;-83
2022/11/24 09:35:58;;;;;;;1999.90;999.90;;;8.40;99.90;;;;;;5047295;28;20040;-84
2022/11/24 09:38:24;;;;;;;1999.90;999.90;;;8.40;99.90;;;;;;5065281;28;20030;-84
2022/11/24 09:40:50;;;;;;;1999.90;999.90;;;8.50;99.90;;;;;;5064256;28;20033;-87
2022/11/24 09:43:43;;;;;;;1999.90;999.90;;;8.50;99.90;;;;;;5047183;28;20037;-83
2022/11/24 09:46:21;;;;;;;1999.90;999.90;;;8.50;99.90;;;;;;5043946;28;20029;-86
2022/11/24 09:48:52;;;;;;;1999.90;999.90;;;8.40;99.90;;;;;;5044264;28;20026;-86
2022/11/24 09:51:23;;;;;;;1999.90;999.90;;;8.40;99.90;;;;;;5064945;28;20032;-86
2022/11/24 09:54:02;;;;;;;1999.90;999.90;;;8.50;99.90;;;;;;5047571;28;20033;-83
2022/11/24 09:56:31;;;;;;;1999.90;999.90;;;8.60;99.90;;;;;;5051782;28;20030;-82
2022/11/24 09:59:20;;;;;;;1999.90;999.90;;;8.60;99.90;;;;;;5070136;28;20600;-82
2022/11/24 10:01:47;;;;;;;1999.90;999.90;;;8.70;99.90;;;;;;5043493;28;20042;-86
2022/11/24 10:04:18;;;;;;;1999.90;999.90;;;8.80;99.90;;;;;;5061021;28;20495;-83
2022/11/24 10:06:46;;;;;;;1999.90;999.90;;;8.90;99.90;;;;;;5043915;28;20042;-88
2022/11/24 10:09:19;;;;;;;1999.90;999.90;;;9.00;99.90;;;;;;5043142;28;20034;-84
2022/11/24 10:12:04;;;;;;;1999.90;999.90;;;9.00;99.90;;;;;;5041914;28;20401;-84
2022/11/24 10:15:00;;;;;;;1999.90;999.90;;;9.10;99.90;;;;;;5042366;28;20041;-84
2022/11/24 10:17:35;;;;;;;1999.90;999.90;;;9.00;99.90;;;;;;5043451;28;20507;-83
2022/11/24 10:20:11;;;;;;;1999.90;999.90;;;8.90;99.90;;;;;;5042547;28;20447;-83
2022/11/24 10:23:14;;;;;;;1999.90;999.90;;;8.90;99.90;;;;;;5060785;28;20073;-82
2022/11/24 10:25:56;;;;;;;1999.90;999.90;;;9.00;99.90;;;;;;5043847;28;20060;-85
2022/11/24 10:28:30;;;;;;;1999.90;999.90;;;9.20;99.90;;;;;;5043514;28;20033;-83
2022/11/24 10:31:22;;;;;;;1999.90;999.90;;;9.20;99.90;;;;;;5041281;28;20040;-79
2022/11/24 10:33:49;;;;;;;1999.90;999.90;;;9.20;99.90;;;;;;5041744;28;20566;-84
2022/11/24 10:36:33;;;;;;;1999.90;999.90;;;9.30;99.90;;;;;;5061058;28;20034;-80
2022/11/24 10:39:11;;;;;;;1999.90;999.90;;;9.40;99.90;;;;;;5044145;28;20080;-81
2022/11/24 10:41:45;;;;;;;1999.90;999.90;;;9.50;99.90;;;;;;5043760;28;20037;-77
2022/11/24 10:44:15;;;;;;;1999.90;999.90;;;9.60;99.90;;;;;;5057291;28;20033;-82
2022/11/24 10:46:41;;;;;;;1999.90;999.90;;;9.60;99.90;;;;;;5038789;28;20037;-77
2022/11/24 10:49:13;;;;;;;1999.90;999.90;;;9.60;99.90;;;;;;5038185;28;20033;-80
2022/11/24 10:52:07;;;;;;;1999.90;999.90;;;9.60;99.90;;;;;;5039060;28;20037;-78
2022/11/24 10:54:34;;;;;;;1999.90;999.90;;;9.60;99.90;;;;;;5058335;28;20084;-79
2022/11/24 10:57:00;;;;;;;1999.90;999.90;;;9.90;99.90;;;;;;5045950;28;20096;-79
2022/11/24 10:59:35;;;;;;;1999.90;999.90;;;9.80;99.90;;;;;;5063193;28;20040;-80
2022/11/24 11:02:22;;;;;;;1999.90;999.90;;;9.80;99.90;;;;;;5060162;28;20581;-80
2022/11/24 11:04:47;;;;;;;1999.90;999.90;;;9.80;99.90;;;;;;5046870;28;20033;-81
2022/11/24 11:07:19;;;;;;;1999.90;999.90;;;9.70;99.90;;;;;;5047406;28;20034;-79
2022/11/24 11:10:17;;;;;;;1999.90;999.90;;;9.80;99.90;;;;;;5065267;28;20774;-81
2022/11/24 11:12:42;;;;;;;1999.90;999.90;;;10.00;99.90;;;;;;5066950;28;20061;-85
2022/11/24 11:15:22;;;;;;;1999.90;999.90;;;10.00;99.90;;;;;;5048493;28;20541;-81
2022/11/24 11:17:51;;;;;;;1999.90;999.90;;;10.10;99.90;;;;;;5063863;28;20805;-81
2022/11/24 11:20:20;;;;;;;1999.90;999.90;;;10.40;99.90;;;;;;5063440;28;20038;-79
2022/11/24 11:22:48;;;;;;;1999.90;999.90;;;10.10;99.90;;;;;;5042174;28;20069;-81
2022/11/24 11:25:17;;;;;;;1999.90;999.90;;;10.10;99.90;;;;;;5060735;28;20032;-79
2022/11/24 11:27:43;;;;;;;1999.90;999.90;;;9.90;99.90;;;;;;5042753;28;20040;-81
2022/11/24 11:30:26;;;;;;;1999.90;999.90;;;9.90;99.90;;;;;;5041835;28;20092;-82
2022/11/24 11:32:59;;;;;;;1999.90;999.90;;;9.90;99.90;;;;;;5058526;28;20174;-80
2022/11/24 11:35:35;;;;;;;1999.90;999.90;;;9.90;99.90;;;;;;5040616;28;20033;-79
2022/11/24 11:38:05;;;;;;;1999.90;999.90;;;9.90;99.90;;;;;;5039423;28;20103;-80
2022/11/24 11:40:31;;;;;;;1999.90;999.90;;;10.00;99.90;;;;;;5037398;28;20034;-79
2022/11/24 11:43:09;;;;;;;1999.90;999.90;;;10.20;99.90;;;;;;5056485;28;20044;-80
2022/11/24 11:45:40;;;;;;;1999.90;999.90;;;10.00;99.90;;;;;;5056842;28;20045;-79
2022/11/24 11:48:29;;;;;;;1999.90;999.90;;;10.10;99.90;;;;;;5056171;28;20030;-79
2022/11/24 11:51:24;;;;;;;1999.90;999.90;;;10.20;99.90;;;;;;5056541;28;20471;-80
2022/11/24 11:54:10;;;;;;;1999.90;999.90;;;10.10;99.90;;;;;;5001900;28;20053;-80
2022/11/24 11:56:43;;;;;;;1999.90;999.90;;;10.10;99.90;;;;;;5039025;28;20038;-80
2022/11/24 11:59:18;;;;;;;1999.90;999.90;;;10.20;99.90;;;;;;5038644;28;20037;-80
2022/11/24 12:01:59;;;;;;;1999.90;999.90;;;10.30;99.90;;;;;;5056800;28;20557;-80
2022/11/24 12:05:02;;;;;;;1999.90;999.90;;;10.30;99.90;;;;;;5056315;28;20113;-80
2022/11/24 12:08:02;;;;;;;1999.90;999.90;;;10.40;99.90;;;;;;4973501;28;20047;-80
2022/11/24 12:10:35;;;;;;;1999.90;999.90;;;10.50;99.90;;;;;;4974713;28;20069;-80
2022/11/24 12:13:17;;;;;;;1999.90;999.90;;;10.40;99.90;;;;;;5033405;28;20054;-80
2022/11/24 12:15:50;;;;;;;1999.90;999.90;;;10.40;99.90;;;;;;5037695;28;20026;-79
2022/11/24 12:18:37;;;;;;;1999.90;999.90;;;10.50;99.90;;;;;;5056409;28;20096;-79
2022/11/24 12:21:11;;;;;;;1999.90;999.90;;;10.50;99.90;;;;;;5037329;28;20045;-79
2022/11/24 12:23:56;;;;;;;1999.90;999.90;;;10.40;99.90;;;;;;5055875;28;20491;-79
2022/11/24 12:26:37;;;;;;;1999.90;999.90;;;10.40;99.90;;;;;;5056435;28;20021;-80
2022/11/24 12:29:18;;;;;;;1999.90;999.90;;;10.40;99.90;;;;;;5056000;28;20076;-82
2022/11/24 12:32:05;;;;;;;1999.90;999.90;;;10.40;99.90;;;;;;5056059;28;20058;-79
2022/11/24 12:34:57;;;;;;;1999.90;999.90;;;10.30;99.90;;;;;;5055240;28;20033;-79
2022/11/24 12:37:38;;;;;;;1999.90;999.90;;;10.30;99.90;;;;;;5057490;28;20021;-80
2022/11/24 12:40:31;;;;;;;1999.90;999.90;;;10.40;99.90;;;;;;5057007;28;20068;-83
2022/11/24 12:43:28;;;;;;;1999.90;999.90;;;10.40;99.90;;;;;;5040664;28;20040;-82
2022/11/24 12:46:13;;;;;;;1999.90;999.90;;;10.30;99.90;;;;;;5061399;28;20035;-80
2022/11/24 12:49:16;;;;;;;1999.90;999.90;;;10.10;99.90;;;;;;5060438;28;20462;-81
2022/11/24 12:51:44;;;;;;;1999.90;999.90;;;9.90;99.90;;;;;;5057382;28;20049;-81
2022/11/24 12:54:17;;;;;;;1999.90;999.90;;;9.80;99.90;;;;;;5028815;28;20049;-79
2022/11/24 12:57:00;;;;;;;1999.90;999.90;;;9.70;99.90;;;;;;5045894;28;20107;-79
2022/11/24 12:59:32;;;;;;;1999.90;999.90;;;9.60;99.90;;;;;;5047945;28;20084;-79
2022/11/24 13:02:10;;;;;;;1999.90;999.90;;;9.60;99.90;;;;;;5046463;28;20045;-79
2022/11/24 13:05:00;;;;;;;1999.90;999.90;;;9.60;99.90;;;;;;5044767;28;20069;-79
2022/11/24 13:07:43;;;;;;;1999.90;999.90;;;9.60;99.90;;;;;;5047748;28;20038;-79
2022/11/24 13:10:31;;;;;;;1999.90;999.90;;;9.60;99.90;;;;;;5051163;28;20029;-79
2022/11/24 13:13:07;;;;;;;1999.90;999.90;;;9.80;99.90;;;;;;5057039;28;20052;-79
2022/11/24 13:15:53;;;;;;;1999.90;999.90;;;9.70;99.90;;;;;;5039432;28;20034;-79
2022/11/24 13:18:47;;;;;;;1999.90;999.90;;;9.80;99.90;;;;;;5054475;28;20038;-79
2022/11/24 13:21:32;;;;;;;1999.90;999.90;;;10.00;99.90;;;;;;5030946;28;20882;-80
2022/11/24 13:24:18;;;;;;;1999.90;999.90;;;10.10;99.90;;;;;;5039492;28;20410;-81
2022/11/24 13:26:49;;;;;;;1999.90;999.90;;;10.10;99.90;;;;;;5049657;28;20064;-80
2022/11/24 13:29:27;;;;;;;1999.90;999.90;;;10.10;99.90;;;;;;5031463;28;20109;-80
2022/11/24 13:32:01;;;;;;;1999.90;999.90;;;10.10;99.90;;;;;;5047275;28;20492;-80
2022/11/24 13:34:56;;;;;;;1999.90;999.90;;;10.10;99.90;;;;;;5057514;28;20471;-79
2022/11/24 13:37:21;;;;;;;1999.90;999.90;;;10.10;99.90;;;;;;5057194;28;20055;-80
2022/11/24 13:40:10;;;;;;;1999.90;999.90;;;10.20;99.90;;;;;;5057317;28;20535;-80
2022/11/24 13:43:01;;;;;;;1999.90;999.90;;;10.10;99.90;;;;;;5057555;28;20043;-79
2022/11/24 13:45:39;;;;;;;1999.90;999.90;;;10.10;99.90;;;;;;5057451;28;20100;-80
2022/11/24 13:48:27;;;;;;;1999.90;999.90;;;10.20;99.90;;;;;;5039543;28;20472;-80
2022/11/24 13:50:53;;;;;;;1999.90;999.90;;;10.20;99.90;;;;;;5057336;28;20037;-80
2022/11/24 13:53:35;;;;;;;1999.90;999.90;;;10.20;99.90;;;;;;5038387;28;20033;-80
2022/11/24 13:56:23;;;;;;;1999.90;999.90;;;10.20;99.90;;;;;;5057361;28;20529;-80
2022/11/24 13:59:12;;;;;;;1999.90;999.90;;;10.20;99.90;;;;;;5056949;28;20037;-80
2022/11/24 14:01:41;;;;;;;1999.90;999.90;;;10.10;99.90;;;;;;5057542;28;20617;-80
2022/11/24 14:04:21;;;;;;;1999.90;999.90;;;10.00;99.90;;;;;;5056807;28;20514;-80
2022/11/24 14:06:53;;;;;;;1999.90;999.90;;;10.00;99.90;;;;;;5057370;28;20073;-80
2022/11/24 14:09:41;;;;;;;1999.90;999.90;;;9.90;99.90;;;;;;5057126;28;20040;-80
2022/11/24 14:12:20;;;;;;;1999.90;999.90;;;9.90;99.90;;;;;;5039004;28;20060;-80
2022/11/24 14:14:48;;;;;;;1999.90;999.90;;;9.80;99.90;;;;;;5038238;28;20184;-80
2022/11/24 14:17:16;;;;;;;1999.90;999.90;;;9.90;99.90;;;;;;5039912;28;20061;-83
2022/11/24 14:19:45;;;;;;;1999.90;999.90;;;9.90;99.90;;;;;;5040685;28;20040;-81
2022/11/24 14:22:35;;;;;;;1999.90;999.90;;;10.00;99.90;;;;;;5059492;28;20570;-79
2022/11/24 14:25:02;;;;;;;1999.90;999.90;;;10.20;99.90;;;;;;5050309;28;20033;-82
2022/11/24 14:27:34;;;;;;;1999.90;999.90;;;10.30;99.90;;;;;;5061695;28;20041;-81
2022/11/24 14:30:17;;;;;;;1999.90;999.90;;;10.50;99.90;;;;;;5059126;28;20480;-79
2022/11/24 14:32:56;;;;;;;1999.90;999.90;;;10.50;99.90;;;;;;5038625;28;20041;-81
2022/11/24 14:35:33;;;;;;;1999.90;999.90;;;10.60;99.90;;;;;;5031798;28;20039;-80
2022/11/24 14:38:02;;;;;;;1999.90;999.90;;;10.60;99.90;;;;;;5057751;28;20042;-81
2022/11/24 14:40:40;;;;;;;1999.90;999.90;;;10.80;99.90;;;;;;5039224;28;20049;-80
2022/11/24 14:43:23;;;;;;;1999.90;999.90;;;10.70;99.90;;;;;;5059413;28;20132;-83
2022/11/24 14:45:52;;;;;;;1999.90;999.90;;;10.80;99.90;;;;;;5059019;28;20116;-82
2022/11/24 14:48:23;;;;;;;1999.90;999.90;;;10.80;99.90;;;;;;5054712;28;20069;-79
2022/11/24 14:50:49;;;;;;;1999.90;999.90;;;10.80;99.90;;;;;;5055438;28;20857;-80
2022/11/24 14:53:17;;;;;;;1999.90;999.90;;;10.80;99.90;;;;;;5055554;28;20112;-80
2022/11/24 14:55:43;;;;;;;1999.90;999.90;;;10.80;99.90;;;;;;5053507;28;20119;-81
2022/11/24 14:58:31;;;;;;;1999.90;999.90;;;10.60;99.90;;;;;;5022763;28;20115;-79
2022/11/24 15:01:19;;;;;;;1999.90;999.90;;;10.50;99.90;;;;;;5037902;28;20045;-79
2022/11/24 15:03:45;;;;;;;1999.90;999.90;;;10.30;99.90;;;;;;5017191;28;20046;-79
2022/11/24 15:06:20;;;;;;;1999.90;999.90;;;10.20;99.90;;;;;;5055598;28;20398;-80
2022/11/24 15:08:48;;;;;;;1999.90;999.90;;;10.10;99.90;;;;;;5059982;28;20626;-80
2022/11/24 15:11:14;;;;;;;1999.90;999.90;;;10.10;99.90;;;;;;5044039;28;20133;-79
2022/11/24 15:13:53;;;;;;;1999.90;999.90;;;10.10;99.90;;;;;;5025630;28;20042;-79
2022/11/24 15:16:21;;;;;;;1999.90;999.90;;;10.00;99.90;;;;;;5056563;28;20518;-80
2022/11/24 15:18:54;;;;;;;1999.90;999.90;;;10.10;99.90;;;;;;5039074;28;20038;-79
2022/11/24 15:21:35;;;;;;;1999.90;999.90;;;10.50;99.90;;;;;;5039504;28;20487;-79
2022/11/24 15:24:17;;;;;;;1999.90;999.90;;;10.00;99.90;;;;;;5039189;28;20061;-80
2022/11/24 15:26:44;;;;;;;1999.90;999.90;;;10.00;99.90;;;;;;5057483;28;20029;-79
2022/11/24 15:29:11;;;;;;;1999.90;999.90;;;9.90;99.90;;;;;;5056851;28;20045;-79
2022/11/24 15:31:37;;;;;;;1999.90;999.90;;;9.90;99.90;;;;;;5057717;28;20029;-80
2022/11/24 15:34:03;;;;;;;1999.90;999.90;;;9.80;99.90;;;;;;5057106;28;20499;-79
2022/11/24 15:36:28;;;;;;;1999.90;999.90;;;9.80;99.90;;;;;;5058068;28;20029;-80
2022/11/24 15:38:54;;;;;;;1999.90;999.90;;;9.70;99.90;;;;;;5038444;28;20083;-79
2022/11/24 15:41:23;;;;;;;1999.90;999.90;;;9.60;99.90;;;;;;5038301;28;20510;-79
2022/11/24 15:43:48;;;;;;;1999.90;999.90;;;9.40;99.90;;;;;;5057233;28;20128;-80
2022/11/24 15:46:16;;;;;;;1999.90;999.90;;;9.30;99.90;;;;;;5060451;28;20049;-82
2022/11/24 15:48:41;;;;;;;1999.90;999.90;;;9.20;99.90;;;;;;5040257;28;20033;-80
2022/11/24 15:51:12;;;;;;;1999.90;999.90;;;9.10;99.90;;;;;;5042065;28;20129;-83
2022/11/24 15:53:41;;;;;;;1999.90;999.90;;;9.10;99.90;;;;;;5064756;28;20037;-79
2022/11/24 15:56:14;;;;;;;1999.90;999.90;;;9.10;99.90;;;;;;5059394;28;20029;-79
2022/11/24 15:58:40;;;;;;;1999.90;999.90;;;9.20;99.90;;;;;;5069334;28;20078;-80
2022/11/24 16:01:05;;;;;;;1999.90;999.90;;;9.10;99.90;;;;;;5058829;28;20029;-80
2022/11/24 16:03:31;;;;;;;1999.90;999.90;;;9.20;99.90;;;;;;5059103;28;20033;-79
2022/11/24 16:05:57;;;;;;;1999.90;999.90;;;9.40;99.90;;;;;;5076833;28;20044;-82
2022/11/24 16:08:22;;;;;;;1999.90;999.90;;;9.10;99.90;;;;;;5079776;28;20115;-80
2022/11/24 16:10:48;;;;;;;1999.90;999.90;;;8.90;99.90;;;;;;5061210;28;20092;-80
2022/11/24 16:13:13;;;;;;;1999.90;999.90;;;8.70;99.90;;;;;;5056041;28;20091;-81
2022/11/24 16:15:39;;;;;;;1999.90;999.90;;;8.40;99.90;;;;;;5058331;28;20060;-77
2022/11/24 16:18:05;;;;;;;1999.90;999.90;;;8.30;99.90;;;;;;5071037;28;20073;-81
2022/11/24 16:20:33;;;;;;;1999.90;999.90;;;8.20;99.90;;;;;;5043825;28;20566;-79
2022/11/24 16:22:59;;;;;;;1999.90;999.90;;;8.30;99.90;;;;;;5058215;28;20411;-79
2022/11/24 16:25:25;;;;;;;1999.90;999.90;;;8.10;99.90;;;;;;5058866;28;20033;-79
2022/11/24 16:27:50;;;;;;;1999.90;999.90;;;7.90;99.90;;;;;;5039772;28;20045;-80
2022/11/24 16:30:16;;;;;;;1999.90;999.90;;;7.60;99.90;;;;;;5057408;28;20033;-80
2022/11/24 16:32:41;;;;;;;1999.90;999.90;;;7.40;99.90;;;;;;5057184;28;20033;-79
2022/11/24 16:35:07;;;;;;;1999.90;999.90;;;7.20;99.90;;;;;;5040175;28;20572;-79
2022/11/24 16:37:33;;;;;;;1999.90;999.90;;;7.00;99.90;;;;;;5057458;28;20045;-79
2022/11/24 16:40:00;;;;;;;1999.90;999.90;;;6.80;99.90;;;;;;5057745;28;20029;-79
2022/11/24 16:42:25;;;;;;;1999.90;999.90;;;6.60;99.90;;;;;;5038845;28;20037;-80
2022/11/24 16:44:51;;;;;;;1999.90;999.90;;;6.40;99.90;;;;;;5038411;28;20037;-79
2022/11/24 16:47:17;;;;;;;1999.90;999.90;;;6.20;99.90;;;;;;5038634;28;20037;-80
2022/11/24 16:49:46;;;;;;;1999.90;999.90;;;6.10;99.90;;;;;;5059549;28;20059;-82
2022/11/24 16:52:12;;;;;;;1999.90;999.90;;;6.00;99.90;;;;;;5040203;28;20040;-81
2022/11/24 16:54:37;;;;;;;1999.90;999.90;;;5.90;99.90;;;;;;5038737;28;20036;-80
2022/11/24 16:57:03;;;;;;;1999.90;999.90;;;5.70;99.90;;;;;;5056330;28;20510;-80
2022/11/24 16:59:29;;;;;;;1999.90;999.90;;;5.70;99.90;;;;;;5038154;28;20523;-80
2022/11/24 17:01:54;;;;;;;1999.90;999.90;;;5.60;99.90;;;;;;5055700;28;20124;-80
2022/11/24 17:04:20;;;;;;;1999.90;999.90;;;5.60;99.90;;;;;;5056064;28;20192;-80
2022/11/24 17:06:45;;;;;;;1999.90;999.90;;;5.60;99.90;;;;;;5056051;28;20044;-80
2022/11/24 17:09:11;;;;;;;1999.90;999.90;;;5.50;99.90;;;;;;5056023;28;20053;-80
2022/11/24 17:11:36;;;;;;;1999.90;999.90;;;5.50;99.90;;;;;;5037520;28;20038;-80
2022/11/24 17:14:02;;;;;;;1999.90;999.90;;;5.40;99.90;;;;;;5054827;28;20042;-79
2022/11/24 17:16:28;;;;;;;1999.90;999.90;;;5.30;99.90;;;;;;5039346;28;20037;-80
2022/11/24 17:18:54;;;;;;;1999.90;999.90;;;5.30;99.90;;;;;;5039299;28;20087;-81
2022/11/24 17:21:25;;;;;;;1999.90;999.90;;;5.30;99.90;;;;;;5041570;28;20124;-78
2022/11/24 17:23:55;;;;;;;1999.90;999.90;;;5.30;99.90;;;;;;5056498;28;20495;-80
2022/11/24 17:26:21;;;;;;;1999.90;999.90;;;5.30;99.90;;;;;;5058887;28;20519;-80
2022/11/24 17:28:46;;;;;;;1999.90;999.90;;;5.30;99.90;;;;;;5041763;28;20057;-81
2022/11/24 17:31:24;;;;;;;1999.90;999.90;;;5.30;99.90;;;;;;5064173;28;20076;-81
2022/11/24 17:33:53;;;;;;;1999.90;999.90;;;5.30;99.90;;;;;;5062781;28;20060;-80
2022/11/24 17:36:19;;;;;;;1999.90;999.90;;;5.30;99.90;;;;;;5042905;28;20038;-80
2022/11/24 17:38:44;;;;;;;1999.90;999.90;;;5.20;99.90;;;;;;5061875;28;20504;-82
2022/11/24 17:41:10;;;;;;;1999.90;999.90;;;5.20;99.90;;;;;;5062189;28;20117;-80
2022/11/24 17:43:36;;;;;;;1999.90;999.90;;;5.20;99.90;;;;;;5059558;28;20037;-80
2022/11/24 17:46:03;;;;;;;1999.90;999.90;;;5.20;99.90;;;;;;5061000;28;20038;-80
2022/11/24 17:48:29;;;;;;;1999.90;999.90;;;5.20;99.90;;;;;;5042843;28;20088;-80
2022/11/24 17:51:11;;;;;;;1999.90;999.90;;;5.10;99.90;;;;;;5042337;28;20107;-80
2022/11/24 17:53:38;;;;;;;1999.90;999.90;;;5.20;99.90;;;;;;5044325;28;20037;-84
2022/11/24 17:56:05;;;;;;;1999.90;999.90;;;5.10;99.90;;;;;;5063042;28;20038;-80
2022/11/24 17:58:33;;;;;;;1999.90;999.90;;;5.00;99.90;;;;;;5043780;28;20033;-85
2022/11/24 18:00:58;;;;;;;1999.90;999.90;;;4.90;99.90;;;;;;5042495;28;20057;-79
2022/11/24 18:03:27;;;;;;;1999.90;999.90;;;4.90;99.90;;;;;;5061431;28;20471;-81
2022/11/24 18:05:53;;;;;;;1999.90;999.90;;;5.00;99.90;;;;;;5063172;28;20045;-85
2022/11/24 18:08:19;;;;;;;1999.90;999.90;;;5.00;99.90;;;;;;5045384;28;20788;-82
2022/11/24 18:10:45;;;;;;;1999.90;999.90;;;4.90;99.90;;;;;;5061904;28;20036;-82
2022/11/24 18:13:11;;;;;;;1999.90;999.90;;;4.90;99.90;;;;;;5060789;28;20068;-82
2022/11/24 18:15:36;;;;;;;1999.90;999.90;;;4.80;99.90;;;;;;5062344;28;20065;-82
2022/11/24 18:18:03;;;;;;;1999.90;999.90;;;4.70;99.90;;;;;;5063381;28;20124;-82
2022/11/24 18:20:29;;;;;;;1999.90;999.90;;;4.60;99.90;;;;;;5042986;28;20088;-81
2022/11/24 18:22:58;;;;;;;1999.90;999.90;;;4.60;99.90;;;;;;5060653;28;20052;-84
2022/11/24 18:25:24;;;;;;;1999.90;999.90;;;4.70;99.90;;;;;;5058412;28;20088;-83
2022/11/24 18:27:49;;;;;;;1999.90;999.90;;;4.70;99.90;;;;;;5039986;28;20096;-84
2022/11/24 18:30:15;;;;;;;1999.90;999.90;;;4.70;99.90;;;;;;5040559;28;20030;-82
2022/11/24 18:32:41;;;;;;;1999.90;999.90;;;4.70;99.90;;;;;;5039390;28;20072;-81
2022/11/24 18:35:08;;;;;;;1999.90;999.90;;;4.90;99.90;;;;;;5039895;28;20034;-83
2022/11/24 18:37:35;;;;;;;1999.90;999.90;;;4.90;99.90;;;;;;5040195;28;20419;-83
2022/11/24 18:40:01;;;;;;;1999.90;999.90;;;4.80;99.90;;;;;;5039409;28;20042;-83
2022/11/24 18:42:27;;;;;;;1999.90;999.90;;;4.80;99.90;;;;;;5058141;28;20479;-82
2022/11/24 18:44:53;;;;;;;1999.90;999.90;;;4.80;99.90;;;;;;5057580;28;20045;-81
2022/11/24 18:47:18;;;;;;;1999.90;999.90;;;4.90;99.90;;;;;;5040138;28;20037;-85
2022/11/24 18:49:44;;;;;;;1999.90;999.90;;;5.00;99.90;;;;;;5025449;28;20470;-84
2022/11/24 18:52:09;;;;;;;1999.90;999.90;;;5.00;99.90;;;;;;5019769;28;20042;-83
2022/11/24 18:54:35;;;;;;;1999.90;999.90;;;5.10;99.90;;;;;;5020065;28;20034;-86
2022/11/24 18:57:00;;;;;;;1999.90;999.90;;;5.20;99.90;;;;;;5037621;28;20121;-85
2022/11/24 18:59:26;;;;;;;1999.90;999.90;;;5.20;99.90;;;;;;5019243;28;20034;-79
2022/11/24 19:01:52;;;;;;;1999.90;999.90;;;5.20;99.90;;;;;;5037686;28;20089;-80
2022/11/24 19:04:17;;;;;;;1999.90;999.90;;;5.10;99.90;;;;;;5037830;28;20484;-80
2022/11/24 19:06:43;;;;;;;1999.90;999.90;;;5.10;99.90;;;;;;5037621;28;20034;-79